Super Servant 4 — PJPO — position and weather

sailwx.info

Track history (hours):
 
Tides and Currents Weather Stations Pressure Air Temp Water Temp Dewpoint Dewpoint Depression Visibility Wind Speed Wind Dir Waves Ship Positions

Super Servant 4

Last reported at 2014-Oct-23 19:33 UTC. Time now 2014-Oct-23 19:56 UTC.
Position N 36°06' W 005°25'.

Length 139 m; beam 32 m.

Type: Cargo ship. MMSI: 306157000.

Date/timePositionNaut miles runAvg speedWind from/ knotsBaromVisibWave heightAir tempDewpointWater temp
2014-Oct-23 19:33N 36°06' W 005°25'0 0.0
2014-Oct-23 18:30N 36°06' W 005°25'0 0.0
2014-Oct-23 17:33N 36°06' W 005°25'0 0.0
2014-Oct-23 16:33N 36°06' W 005°25'0 0.0
2014-Oct-23 15:30N 36°06' W 005°25'0 0.0
2014-Oct-23 14:33N 36°06' W 005°25'0 0.0
2014-Oct-23 13:33N 36°06' W 005°25'0 0.0
2014-Oct-23 12:33N 36°06' W 005°25'0 0.0
2014-Oct-23 11:33N 36°06' W 005°25'0 0.0
2014-Oct-23 10:33N 36°06' W 005°25'8 7.6
2014-Oct-23 09:33N 35°59' W 005°25'22710.5
2014-Oct-22 12:05N 35°16' W 009°59'1610.5
2014-Oct-22 10:33N 35°11' W 010°18'1110.9
2014-Oct-22 09:33N 35°09' W 010°31'4410.9
2014-Oct-22 05:32N 34°59' W 011°23'1111.2
2014-Oct-22 04:33N 34°56' W 011°36'1311.6
2014-Oct-22 03:25N 34°53' W 011°52'2511.4
2014-Oct-22 01:13N 34°48' W 012°22'711.0
2014-Oct-22 00:33N 34°46' W 012°30'1211.0
2014-Oct-21 23:29N 34°42' W 012°43'1311.0
2014-Oct-21 22:17N 34°37' W 012°59'5110.8
2014-Oct-21 17:33N 34°25' W 013°59'  
Track history (hours):
 
Tides and Currents Weather Stations Pressure Air Temp Water Temp Dewpoint Dewpoint Depression Visibility Wind Speed Wind Dir Waves Ship Positions

Super Servant 4

Last reported at 2014-Oct-23 19:33 UTC. Time now 2014-Oct-23 19:56 UTC.
Position N 36°06' W 005°25'.

Length 139 m; beam 32 m.

Type: Cargo ship. MMSI: 306157000.

Date/timePositionNaut miles runAvg speedWind from/ knotsBaromVisibWave heightAir tempDewpointWater temp
2014-Oct-23 19:33N 36°06' W 005°25'0 0.0
2014-Oct-23 18:30N 36°06' W 005°25'0 0.0
2014-Oct-23 17:33N 36°06' W 005°25'0 0.0
2014-Oct-23 16:33N 36°06' W 005°25'0 0.0
2014-Oct-23 15:30N 36°06' W 005°25'0 0.0
2014-Oct-23 14:33N 36°06' W 005°25'0 0.0
2014-Oct-23 13:33N 36°06' W 005°25'0 0.0
2014-Oct-23 12:33N 36°06' W 005°25'0 0.0
2014-Oct-23 11:33N 36°06' W 005°25'0 0.0
2014-Oct-23 10:33N 36°06' W 005°25'8 7.6
2014-Oct-23 09:33N 35°59' W 005°25'22710.5
2014-Oct-22 12:05N 35°16' W 009°59'1610.5
2014-Oct-22 10:33N 35°11' W 010°18'1110.9
2014-Oct-22 09:33N 35°09' W 010°31'4410.9
2014-Oct-22 05:32N 34°59' W 011°23'1111.2
2014-Oct-22 04:33N 34°56' W 011°36'1311.6
2014-Oct-22 03:25N 34°53' W 011°52'2511.4
2014-Oct-22 01:13N 34°48' W 012°22'711.0
2014-Oct-22 00:33N 34°46' W 012°30'1211.0
2014-Oct-21 23:29N 34°42' W 012°43'1311.0
2014-Oct-21 22:17N 34°37' W 012°59'5110.8
2014-Oct-21 17:33N 34°25' W 013°59'  

Dump ship's entire track history